sensor_id;sensor_type;location;lat;lon;timestamp;temperature;humidity
43089;DHT22;28709;52.030;5.652;2023-03-05T00:01:32;4.70;99.90
43089;DHT22;28709;52.030;5.652;2023-03-05T00:03:58;4.70;99.90
43089;DHT22;28709;52.030;5.652;2023-03-05T00:06:28;4.70;99.90
43089;DHT22;28709;52.030;5.652;2023-03-05T00:08:54;4.70;99.90
43089;DHT22;28709;52.030;5.652;2023-03-05T00:11:23;4.70;99.90
43089;DHT22;28709;52.030;5.652;2023-03-05T00:13:53;4.70;99.90
43089;DHT22;28709;52.030;5.652;2023-03-05T00:16:20;4.70;99.90
43089;DHT22;28709;52.030;5.652;2023-03-05T00:18:46;4.70;99.90
43089;DHT22;28709;52.030;5.652;2023-03-05T00:21:21;4.70;99.90
43089;DHT22;28709;52.030;5.652;2023-03-05T00:23:47;4.70;99.90
43089;DHT22;28709;52.030;5.652;2023-03-05T00:26:15;4.70;99.90
43089;DHT22;28709;52.030;5.652;2023-03-05T00:28:41;4.70;99.90
43089;DHT22;28709;52.030;5.652;2023-03-05T00:31:06;4.70;99.90
43089;DHT22;28709;52.030;5.652;2023-03-05T00:33:32;4.70;99.90
43089;DHT22;28709;52.030;5.652;2023-03-05T00:35:58;4.60;99.90
43089;DHT22;28709;52.030;5.652;2023-03-05T00:38:26;4.70;99.90
43089;DHT22;28709;52.030;5.652;2023-03-05T00:40:52;4.70;99.90
43089;DHT22;28709;52.030;5.652;2023-03-05T00:43:17;4.70;99.90
43089;DHT22;28709;52.030;5.652;2023-03-05T00:45:43;4.60;99.90
43089;DHT22;28709;52.030;5.652;2023-03-05T00:48:09;4.60;99.90
43089;DHT22;28709;52.030;5.652;2023-03-05T00:50:34;4.60;99.90
43089;DHT22;28709;52.030;5.652;2023-03-05T00:53:00;4.60;99.90
43089;DHT22;28709;52.030;5.652;2023-03-05T00:55:26;4.60;99.90
43089;DHT22;28709;52.030;5.652;2023-03-05T00:57:51;4.70;99.90
43089;DHT22;28709;52.030;5.652;2023-03-05T01:00:17;4.60;99.90
43089;DHT22;28709;52.030;5.652;2023-03-05T01:02:44;4.60;99.90
43089;DHT22;28709;52.030;5.652;2023-03-05T01:05:13;4.60;99.90
43089;DHT22;28709;52.030;5.652;2023-03-05T01:07:39;4.60;99.90
43089;DHT22;28709;52.030;5.652;2023-03-05T01:10:06;4.60;99.90
43089;DHT22;28709;52.030;5.652;2023-03-05T01:12:32;4.60;99.90
43089;DHT22;28709;52.030;5.652;2023-03-05T01:14:57;4.70;99.90
43089;DHT22;28709;52.030;5.652;2023-03-05T01:17:23;4.60;99.90
43089;DHT22;28709;52.030;5.652;2023-03-05T01:19:49;4.70;99.90
43089;DHT22;28709;52.030;5.652;2023-03-05T01:22:14;4.60;99.90
43089;DHT22;28709;52.030;5.652;2023-03-05T01:24:40;4.60;99.90
43089;DHT22;28709;52.030;5.652;2023-03-05T01:27:05;4.60;99.90
43089;DHT22;28709;52.030;5.652;2023-03-05T01:29:31;4.60;99.90
43089;DHT22;28709;52.030;5.652;2023-03-05T01:31:57;4.50;99.90
43089;DHT22;28709;52.030;5.652;2023-03-05T01:34:22;4.60;99.90
43089;DHT22;28709;52.030;5.652;2023-03-05T01:36:48;4.50;99.90
43089;DHT22;28709;52.030;5.652;2023-03-05T01:39:15;4.60;99.90
43089;DHT22;28709;52.030;5.652;2023-03-05T01:41:41;4.50;99.90
43089;DHT22;28709;52.030;5.652;2023-03-05T01:44:26;4.50;99.90
43089;DHT22;28709;52.030;5.652;2023-03-05T01:46:52;4.50;99.90
43089;DHT22;28709;52.030;5.652;2023-03-05T01:49:19;4.50;99.90
43089;DHT22;28709;52.030;5.652;2023-03-05T01:54:42;4.50;99.90
43089;DHT22;28709;52.030;5.652;2023-03-05T01:57:13;4.50;99.90
43089;DHT22;28709;52.030;5.652;2023-03-05T01:59:41;4.50;99.90
43089;DHT22;28709;52.030;5.652;2023-03-05T02:02:09;4.50;99.90
43089;DHT22;28709;52.030;5.652;2023-03-05T02:04:47;4.50;99.90
43089;DHT22;28709;52.030;5.652;2023-03-05T02:07:15;4.50;99.90
43089;DHT22;28709;52.030;5.652;2023-03-05T02:09:41;4.50;99.90
43089;DHT22;28709;52.030;5.652;2023-03-05T02:12:08;4.50;99.90
43089;DHT22;28709;52.030;5.652;2023-03-05T02:14:35;4.50;99.90
43089;DHT22;28709;52.030;5.652;2023-03-05T02:17:01;4.50;99.90
43089;DHT22;28709;52.030;5.652;2023-03-05T02:19:26;4.50;99.90
43089;DHT22;28709;52.030;5.652;2023-03-05T02:21:52;4.40;99.90
43089;DHT22;28709;52.030;5.652;2023-03-05T02:24:35;4.50;99.90
43089;DHT22;28709;52.030;5.652;2023-03-05T02:27:01;4.40;99.90
43089;DHT22;28709;52.030;5.652;2023-03-05T02:29:29;4.40;99.90
43089;DHT22;28709;52.030;5.652;2023-03-05T02:31:56;4.40;99.90
43089;DHT22;28709;52.030;5.652;2023-03-05T02:34:22;4.40;99.90
43089;DHT22;28709;52.030;5.652;2023-03-05T02:36:47;4.40;99.90
43089;DHT22;28709;52.030;5.652;2023-03-05T02:39:15;4.40;99.90
43089;DHT22;28709;52.030;5.652;2023-03-05T02:41:41;4.40;99.90
43089;DHT22;28709;52.030;5.652;2023-03-05T02:44:06;4.40;99.90
43089;DHT22;28709;52.030;5.652;2023-03-05T02:46:33;4.40;99.90
43089;DHT22;28709;52.030;5.652;2023-03-05T02:48:58;4.40;99.90
43089;DHT22;28709;52.030;5.652;2023-03-05T02:51:24;4.40;99.90
43089;DHT22;28709;52.030;5.652;2023-03-05T02:53:49;4.40;99.90
43089;DHT22;28709;52.030;5.652;2023-03-05T02:56:15;4.40;99.90
43089;DHT22;28709;52.030;5.652;2023-03-05T02:58:41;4.40;99.90
43089;DHT22;28709;52.030;5.652;2023-03-05T03:01:08;4.40;99.90
43089;DHT22;28709;52.030;5.652;2023-03-05T03:03:34;4.40;99.90
43089;DHT22;28709;52.030;5.652;2023-03-05T03:06:00;4.40;99.90
43089;DHT22;28709;52.030;5.652;2023-03-05T03:08:26;4.40;99.90
43089;DHT22;28709;52.030;5.652;2023-03-05T03:10:52;4.40;99.90
43089;DHT22;28709;52.030;5.652;2023-03-05T03:13:17;4.40;99.90
43089;DHT22;28709;52.030;5.652;2023-03-05T03:15:43;4.40;99.90
43089;DHT22;28709;52.030;5.652;2023-03-05T03:18:09;4.40;99.90
43089;DHT22;28709;52.030;5.652;2023-03-05T03:20:37;4.50;99.90
43089;DHT22;28709;52.030;5.652;2023-03-05T03:23:03;4.50;99.90
43089;DHT22;28709;52.030;5.652;2023-03-05T03:25:29;4.40;99.90
43089;DHT22;28709;52.030;5.652;2023-03-05T03:27:55;4.50;99.90
43089;DHT22;28709;52.030;5.652;2023-03-05T03:30:20;4.40;99.90
43089;DHT22;28709;52.030;5.652;2023-03-05T03:32:46;4.40;99.90
43089;DHT22;28709;52.030;5.652;2023-03-05T03:35:12;4.40;99.90
43089;DHT22;28709;52.030;5.652;2023-03-05T03:37:38;4.40;99.90
43089;DHT22;28709;52.030;5.652;2023-03-05T03:40:05;4.40;99.90
43089;DHT22;28709;52.030;5.652;2023-03-05T03:42:31;4.30;99.90
43089;DHT22;28709;52.030;5.652;2023-03-05T03:44:56;4.30;99.90
43089;DHT22;28709;52.030;5.652;2023-03-05T03:47:22;4.30;99.90
43089;DHT22;28709;52.030;5.652;2023-03-05T03:49:47;4.30;99.90
43089;DHT22;28709;52.030;5.652;2023-03-05T03:52:13;4.30;99.90
43089;DHT22;28709;52.030;5.652;2023-03-05T03:54:39;4.20;99.90
43089;DHT22;28709;52.030;5.652;2023-03-05T03:57:05;4.20;99.90
43089;DHT22;28709;52.030;5.652;2023-03-05T03:59:31;4.20;99.90
43089;DHT22;28709;52.030;5.652;2023-03-05T04:01:56;4.20;99.90
43089;DHT22;28709;52.030;5.652;2023-03-05T04:04:22;4.20;99.90
43089;DHT22;28709;52.030;5.652;2023-03-05T04:06:48;4.20;99.90
43089;DHT22;28709;52.030;5.652;2023-03-05T04:09:13;4.20;99.90
43089;DHT22;28709;52.030;5.652;2023-03-05T04:11:39;4.10;99.90
43089;DHT22;28709;52.030;5.652;2023-03-05T04:14:05;4.10;99.90
43089;DHT22;28709;52.030;5.652;2023-03-05T04:16:30;4.20;99.90
43089;DHT22;28709;52.030;5.652;2023-03-05T04:18:56;4.20;99.90
43089;DHT22;28709;52.030;5.652;2023-03-05T04:21:22;4.20;99.90
43089;DHT22;28709;52.030;5.652;2023-03-05T04:23:47;4.20;99.90
43089;DHT22;28709;52.030;5.652;2023-03-05T04:26:13;4.10;99.90
43089;DHT22;28709;52.030;5.652;2023-03-05T04:28:39;4.20;99.90
43089;DHT22;28709;52.030;5.652;2023-03-05T04:31:04;4.10;99.90
43089;DHT22;28709;52.030;5.652;2023-03-05T04:33:30;4.10;99.90
43089;DHT22;28709;52.030;5.652;2023-03-05T04:35:56;4.10;99.90
43089;DHT22;28709;52.030;5.652;2023-03-05T04:38:22;4.10;99.90
43089;DHT22;28709;52.030;5.652;2023-03-05T04:40:48;4.10;99.90
43089;DHT22;28709;52.030;5.652;2023-03-05T04:43:14;4.10;99.90
43089;DHT22;28709;52.030;5.652;2023-03-05T04:45:40;4.10;99.90
43089;DHT22;28709;52.030;5.652;2023-03-05T04:48:07;4.10;99.90
43089;DHT22;28709;52.030;5.652;2023-03-05T04:50:32;4.10;99.90
43089;DHT22;28709;52.030;5.652;2023-03-05T04:52:58;4.00;99.90
43089;DHT22;28709;52.030;5.652;2023-03-05T04:55:25;4.00;99.90
43089;DHT22;28709;52.030;5.652;2023-03-05T04:57:51;4.00;99.90
43089;DHT22;28709;52.030;5.652;2023-03-05T05:00:17;3.90;99.90
43089;DHT22;28709;52.030;5.652;2023-03-05T05:02:45;3.90;99.90
43089;DHT22;28709;52.030;5.652;2023-03-05T05:05:12;3.90;99.90
43089;DHT22;28709;52.030;5.652;2023-03-05T05:07:38;3.90;99.90
43089;DHT22;28709;52.030;5.652;2023-03-05T05:10:05;3.90;99.90
43089;DHT22;28709;52.030;5.652;2023-03-05T05:12:33;3.90;99.90
43089;DHT22;28709;52.030;5.652;2023-03-05T05:14:59;3.90;99.90
43089;DHT22;28709;52.030;5.652;2023-03-05T05:17:25;3.90;99.90
43089;DHT22;28709;52.030;5.652;2023-03-05T05:19:51;3.90;99.90
43089;DHT22;28709;52.030;5.652;2023-03-05T05:22:17;3.90;99.90
43089;DHT22;28709;52.030;5.652;2023-03-05T05:24:42;3.80;99.90
43089;DHT22;28709;52.030;5.652;2023-03-05T05:27:08;3.90;99.90
43089;DHT22;28709;52.030;5.652;2023-03-05T05:29:34;3.80;99.90
43089;DHT22;28709;52.030;5.652;2023-03-05T05:32:00;3.80;99.90
43089;DHT22;28709;52.030;5.652;2023-03-05T05:34:25;3.80;99.90
43089;DHT22;28709;52.030;5.652;2023-03-05T05:36:52;3.80;99.90
43089;DHT22;28709;52.030;5.652;2023-03-05T05:39:18;3.80;99.90
43089;DHT22;28709;52.030;5.652;2023-03-05T05:41:43;3.90;99.90
43089;DHT22;28709;52.030;5.652;2023-03-05T05:44:09;3.90;99.90
43089;DHT22;28709;52.030;5.652;2023-03-05T05:46:35;3.80;99.90
43089;DHT22;28709;52.030;5.652;2023-03-05T05:49:01;3.90;99.90
43089;DHT22;28709;52.030;5.652;2023-03-05T05:51:26;3.90;99.90
43089;DHT22;28709;52.030;5.652;2023-03-05T05:53:52;3.80;99.90
43089;DHT22;28709;52.030;5.652;2023-03-05T05:56:18;3.80;99.90
43089;DHT22;28709;52.030;5.652;2023-03-05T05:58:45;3.80;99.90
43089;DHT22;28709;52.030;5.652;2023-03-05T06:01:23;3.80;99.90
43089;DHT22;28709;52.030;5.652;2023-03-05T06:03:49;3.80;99.90
43089;DHT22;28709;52.030;5.652;2023-03-05T06:06:17;3.70;99.90
43089;DHT22;28709;52.030;5.652;2023-03-05T06:08:43;3.70;99.90
43089;DHT22;28709;52.030;5.652;2023-03-05T06:11:09;3.70;99.90
43089;DHT22;28709;52.030;5.652;2023-03-05T06:13:35;3.70;99.90
43089;DHT22;28709;52.030;5.652;2023-03-05T06:16:04;3.70;99.90
43089;DHT22;28709;52.030;5.652;2023-03-05T06:18:31;3.70;99.90
43089;DHT22;28709;52.030;5.652;2023-03-05T06:21:02;3.60;99.90
43089;DHT22;28709;52.030;5.652;2023-03-05T06:23:29;3.60;99.90
43089;DHT22;28709;52.030;5.652;2023-03-05T06:25:58;3.60;99.90
43089;DHT22;28709;52.030;5.652;2023-03-05T06:28:24;3.60;99.90
43089;DHT22;28709;52.030;5.652;2023-03-05T06:30:49;3.70;99.90
43089;DHT22;28709;52.030;5.652;2023-03-05T06:33:15;3.70;99.90
43089;DHT22;28709;52.030;5.652;2023-03-05T06:35:41;3.70;99.90
43089;DHT22;28709;52.030;5.652;2023-03-05T06:38:07;3.70;99.90
43089;DHT22;28709;52.030;5.652;2023-03-05T06:40:34;3.70;99.90
43089;DHT22;28709;52.030;5.652;2023-03-05T06:43:00;3.80;99.90
43089;DHT22;28709;52.030;5.652;2023-03-05T06:45:26;3.80;99.90
43089;DHT22;28709;52.030;5.652;2023-03-05T06:47:51;3.80;99.90
43089;DHT22;28709;52.030;5.652;2023-03-05T06:50:17;3.80;99.90
43089;DHT22;28709;52.030;5.652;2023-03-05T06:52:43;3.80;99.90
43089;DHT22;28709;52.030;5.652;2023-03-05T06:55:08;3.80;99.90
43089;DHT22;28709;52.030;5.652;2023-03-05T06:57:35;3.80;99.90
43089;DHT22;28709;52.030;5.652;2023-03-05T07:00:03;3.90;99.90
43089;DHT22;28709;52.030;5.652;2023-03-05T07:02:36;3.90;99.90
43089;DHT22;28709;52.030;5.652;2023-03-05T07:05:02;3.90;99.90
43089;DHT22;28709;52.030;5.652;2023-03-05T07:07:28;4.00;99.90
43089;DHT22;28709;52.030;5.652;2023-03-05T07:09:54;4.00;99.90
43089;DHT22;28709;52.030;5.652;2023-03-05T07:12:19;4.10;99.90
43089;DHT22;28709;52.030;5.652;2023-03-05T07:14:45;4.10;99.90
43089;DHT22;28709;52.030;5.652;2023-03-05T07:17:10;4.10;99.90
43089;DHT22;28709;52.030;5.652;2023-03-05T07:19:37;4.20;99.90
43089;DHT22;28709;52.030;5.652;2023-03-05T07:22:02;4.20;99.90
43089;DHT22;28709;52.030;5.652;2023-03-05T07:24:28;4.30;99.90
43089;DHT22;28709;52.030;5.652;2023-03-05T07:26:57;4.30;99.90
43089;DHT22;28709;52.030;5.652;2023-03-05T07:29:24;4.40;99.90
43089;DHT22;28709;52.030;5.652;2023-03-05T07:31:51;4.50;99.90
43089;DHT22;28709;52.030;5.652;2023-03-05T07:34:16;4.50;99.90
43089;DHT22;28709;52.030;5.652;2023-03-05T07:36:42;4.60;99.90
43089;DHT22;28709;52.030;5.652;2023-03-05T07:39:08;4.60;99.90
43089;DHT22;28709;52.030;5.652;2023-03-05T07:41:34;4.70;99.90
43089;DHT22;28709;52.030;5.652;2023-03-05T07:44:00;4.80;99.90
43089;DHT22;28709;52.030;5.652;2023-03-05T07:46:28;4.80;99.90
43089;DHT22;28709;52.030;5.652;2023-03-05T07:48:54;4.90;99.90
43089;DHT22;28709;52.030;5.652;2023-03-05T07:51:21;4.90;99.90
43089;DHT22;28709;52.030;5.652;2023-03-05T07:53:49;5.00;99.90
43089;DHT22;28709;52.030;5.652;2023-03-05T07:56:22;5.10;99.90
43089;DHT22;28709;52.030;5.652;2023-03-05T07:58:48;5.10;99.90
43089;DHT22;28709;52.030;5.652;2023-03-05T08:01:14;5.20;99.90
43089;DHT22;28709;52.030;5.652;2023-03-05T08:03:40;5.20;99.90
43089;DHT22;28709;52.030;5.652;2023-03-05T08:06:07;5.30;99.90
43089;DHT22;28709;52.030;5.652;2023-03-05T08:08:33;5.30;99.90
43089;DHT22;28709;52.030;5.652;2023-03-05T08:11:09;5.40;99.90
43089;DHT22;28709;52.030;5.652;2023-03-05T08:13:35;5.50;99.90
43089;DHT22;28709;52.030;5.652;2023-03-05T08:16:05;5.50;99.90
43089;DHT22;28709;52.030;5.652;2023-03-05T08:18:31;5.50;99.90
43089;DHT22;28709;52.030;5.652;2023-03-05T08:20:57;5.30;99.90
43089;DHT22;28709;52.030;5.652;2023-03-05T08:23:23;5.10;99.90
43089;DHT22;28709;52.030;5.652;2023-03-05T08:25:49;5.00;99.90
43089;DHT22;28709;52.030;5.652;2023-03-05T08:28:15;4.90;99.90
43089;DHT22;28709;52.030;5.652;2023-03-05T08:30:44;4.90;99.90
43089;DHT22;28709;52.030;5.652;2023-03-05T08:33:10;4.90;99.90
43089;DHT22;28709;52.030;5.652;2023-03-05T08:35:36;4.90;99.90
43089;DHT22;28709;52.030;5.652;2023-03-05T08:38:02;4.90;99.90
43089;DHT22;28709;52.030;5.652;2023-03-05T08:40:28;5.00;99.90
43089;DHT22;28709;52.030;5.652;2023-03-05T08:42:53;5.00;99.90
43089;DHT22;28709;52.030;5.652;2023-03-05T08:45:19;5.00;99.90
43089;DHT22;28709;52.030;5.652;2023-03-05T08:47:44;5.00;99.90
43089;DHT22;28709;52.030;5.652;2023-03-05T08:50:11;5.10;99.90
43089;DHT22;28709;52.030;5.652;2023-03-05T08:52:36;5.20;99.90
43089;DHT22;28709;52.030;5.652;2023-03-05T08:55:02;5.30;99.90
43089;DHT22;28709;52.030;5.652;2023-03-05T08:57:28;5.40;99.90
43089;DHT22;28709;52.030;5.652;2023-03-05T08:59:53;5.40;99.90
43089;DHT22;28709;52.030;5.652;2023-03-05T09:02:19;5.40;99.90
43089;DHT22;28709;52.030;5.652;2023-03-05T09:04:45;5.50;99.90
43089;DHT22;28709;52.030;5.652;2023-03-05T09:07:10;5.50;99.90
43089;DHT22;28709;52.030;5.652;2023-03-05T09:09:37;5.50;99.90
43089;DHT22;28709;52.030;5.652;2023-03-05T09:12:03;5.60;99.90
43089;DHT22;28709;52.030;5.652;2023-03-05T09:14:29;5.70;99.90
43089;DHT22;28709;52.030;5.652;2023-03-05T09:16:55;5.80;99.90
43089;DHT22;28709;52.030;5.652;2023-03-05T09:19:21;5.80;99.90
43089;DHT22;28709;52.030;5.652;2023-03-05T09:21:47;5.90;99.90
43089;DHT22;28709;52.030;5.652;2023-03-05T09:24:13;6.00;99.90
43089;DHT22;28709;52.030;5.652;2023-03-05T09:26:38;6.10;99.90
43089;DHT22;28709;52.030;5.652;2023-03-05T09:29:06;6.30;99.90
43089;DHT22;28709;52.030;5.652;2023-03-05T09:31:34;6.40;99.90
43089;DHT22;28709;52.030;5.652;2023-03-05T09:34:00;6.60;99.90
43089;DHT22;28709;52.030;5.652;2023-03-05T09:36:28;6.60;99.90
43089;DHT22;28709;52.030;5.652;2023-03-05T09:38:54;6.70;99.90
43089;DHT22;28709;52.030;5.652;2023-03-05T09:49:57;6.50;99.90
43089;DHT22;28709;52.030;5.652;2023-03-05T09:52:42;6.40;99.90
43089;DHT22;28709;52.030;5.652;2023-03-05T09:57:51;6.20;99.90
43089;DHT22;28709;52.030;5.652;2023-03-05T10:00:35;6.20;99.90
43089;DHT22;28709;52.030;5.652;2023-03-05T10:03:09;6.30;99.90
43089;DHT22;28709;52.030;5.652;2023-03-05T10:09:04;6.40;99.90
43089;DHT22;28709;52.030;5.652;2023-03-05T10:11:50;6.40;99.90
43089;DHT22;28709;52.030;5.652;2023-03-05T10:14:34;6.50;99.90
43089;DHT22;28709;52.030;5.652;2023-03-05T10:17:31;6.60;99.90
43089;DHT22;28709;52.030;5.652;2023-03-05T10:20:20;6.60;99.90
43089;DHT22;28709;52.030;5.652;2023-03-05T10:26:14;6.80;99.90
43089;DHT22;28709;52.030;5.652;2023-03-05T10:29:07;6.90;99.90
43089;DHT22;28709;52.030;5.652;2023-03-05T10:45:38;6.90;99.90
43089;DHT22;28709;52.030;5.652;2023-03-05T10:48:06;6.90;99.90
43089;DHT22;28709;52.030;5.652;2023-03-05T10:50:40;6.90;99.90
43089;DHT22;28709;52.030;5.652;2023-03-05T10:53:15;7.00;99.90
43089;DHT22;28709;52.030;5.652;2023-03-05T10:55:43;7.00;99.90
43089;DHT22;28709;52.030;5.652;2023-03-05T10:58:13;7.10;99.90
43089;DHT22;28709;52.030;5.652;2023-03-05T11:00:40;7.20;99.90
43089;DHT22;28709;52.030;5.652;2023-03-05T11:03:21;7.40;99.90
43089;DHT22;28709;52.030;5.652;2023-03-05T11:05:52;7.60;99.90
43089;DHT22;28709;52.030;5.652;2023-03-05T11:08:31;8.00;99.90
43089;DHT22;28709;52.030;5.652;2023-03-05T11:11:16;8.40;99.90
43089;DHT22;28709;52.030;5.652;2023-03-05T11:13:58;9.10;99.90
43089;DHT22;28709;52.030;5.652;2023-03-05T11:16:32;9.50;99.90
43089;DHT22;28709;52.030;5.652;2023-03-05T11:19:19;9.60;99.90
43089;DHT22;28709;52.030;5.652;2023-03-05T11:22:03;9.50;99.90
43089;DHT22;28709;52.030;5.652;2023-03-05T11:24:29;9.40;99.90
43089;DHT22;28709;52.030;5.652;2023-03-05T11:26:56;9.30;99.90
43089;DHT22;28709;52.030;5.652;2023-03-05T11:29:25;9.50;99.90
43089;DHT22;28709;52.030;5.652;2023-03-05T11:31:52;9.80;99.90
43089;DHT22;28709;52.030;5.652;2023-03-05T11:39:16;9.80;99.90
43089;DHT22;28709;52.030;5.652;2023-03-05T11:44:26;9.70;99.90
43089;DHT22;28709;52.030;5.652;2023-03-05T11:49:26;9.30;99.90
43089;DHT22;28709;52.030;5.652;2023-03-05T11:52:05;9.40;99.90
43089;DHT22;28709;52.030;5.652;2023-03-05T11:54:50;9.60;99.90
43089;DHT22;28709;52.030;5.652;2023-03-05T11:57:17;9.80;99.90
43089;DHT22;28709;52.030;5.652;2023-03-05T11:59:43;10.00;99.90
43089;DHT22;28709;52.030;5.652;2023-03-05T12:02:18;10.00;99.90
43089;DHT22;28709;52.030;5.652;2023-03-05T12:04:45;10.00;99.90
43089;DHT22;28709;52.030;5.652;2023-03-05T12:07:14;10.20;99.90
43089;DHT22;28709;52.030;5.652;2023-03-05T12:09:49;10.30;99.90
43089;DHT22;28709;52.030;5.652;2023-03-05T12:12:39;10.50;99.90
43089;DHT22;28709;52.030;5.652;2023-03-05T12:15:17;10.70;99.90
43089;DHT22;28709;52.030;5.652;2023-03-05T12:17:53;10.80;99.90
43089;DHT22;28709;52.030;5.652;2023-03-05T12:23:17;11.00;99.90
43089;DHT22;28709;52.030;5.652;2023-03-05T12:25:54;11.00;99.90
43089;DHT22;28709;52.030;5.652;2023-03-05T12:30:56;10.90;99.90
43089;DHT22;28709;52.030;5.652;2023-03-05T12:33:35;11.30;99.90
43089;DHT22;28709;52.030;5.652;2023-03-05T12:38:48;11.00;99.50
43089;DHT22;28709;52.030;5.652;2023-03-05T12:46:37;11.50;99.90
43089;DHT22;28709;52.030;5.652;2023-03-05T12:51:48;11.20;98.90
43089;DHT22;28709;52.030;5.652;2023-03-05T12:56:46;10.20;98.60
43089;DHT22;28709;52.030;5.652;2023-03-05T12:59:13;9.80;99.30
43089;DHT22;28709;52.030;5.652;2023-03-05T13:01:45;9.80;99.90
43089;DHT22;28709;52.030;5.652;2023-03-05T13:04:15;9.90;99.90
43089;DHT22;28709;52.030;5.652;2023-03-05T13:06:44;10.00;99.90
43089;DHT22;28709;52.030;5.652;2023-03-05T13:09:24;10.00;99.90
43089;DHT22;28709;52.030;5.652;2023-03-05T13:11:53;9.80;99.80
43089;DHT22;28709;52.030;5.652;2023-03-05T13:16:57;9.50;99.70
43089;DHT22;28709;52.030;5.652;2023-03-05T13:19:23;9.40;99.90
43089;DHT22;28709;52.030;5.652;2023-03-05T13:22:03;9.40;99.70
43089;DHT22;28709;52.030;5.652;2023-03-05T13:24:34;9.50;99.90
43089;DHT22;28709;52.030;5.652;2023-03-05T13:26:59;9.70;99.90
43089;DHT22;28709;52.030;5.652;2023-03-05T13:29:26;10.10;99.90
43089;DHT22;28709;52.030;5.652;2023-03-05T13:31:59;10.10;99.40
43089;DHT22;28709;52.030;5.652;2023-03-05T13:34:31;9.70;99.30
43089;DHT22;28709;52.030;5.652;2023-03-05T13:37:18;9.50;99.50
43089;DHT22;28709;52.030;5.652;2023-03-05T13:39:56;9.40;99.50
43089;DHT22;28709;52.030;5.652;2023-03-05T13:42:27;9.30;99.60
43089;DHT22;28709;52.030;5.652;2023-03-05T13:45:02;8.90;98.80
43089;DHT22;28709;52.030;5.652;2023-03-05T13:47:31;8.50;99.60
43089;DHT22;28709;52.030;5.652;2023-03-05T13:50:01;8.40;99.90
43089;DHT22;28709;52.030;5.652;2023-03-05T13:52:32;8.30;99.90
43089;DHT22;28709;52.030;5.652;2023-03-05T13:54:58;8.30;99.90
43089;DHT22;28709;52.030;5.652;2023-03-05T13:57:45;8.30;99.90
43089;DHT22;28709;52.030;5.652;2023-03-05T14:02:54;8.20;99.90
43089;DHT22;28709;52.030;5.652;2023-03-05T14:05:20;8.10;99.90
43089;DHT22;28709;52.030;5.652;2023-03-05T14:07:48;8.10;99.90
43089;DHT22;28709;52.030;5.652;2023-03-05T14:12:56;7.90;99.90
43089;DHT22;28709;52.030;5.652;2023-03-05T14:15:26;7.90;99.90
43089;DHT22;28709;52.030;5.652;2023-03-05T14:18:07;7.90;99.90
43089;DHT22;28709;52.030;5.652;2023-03-05T14:20:33;7.80;99.90
43089;DHT22;28709;52.030;5.652;2023-03-05T14:23:00;7.70;99.90
43089;DHT22;28709;52.030;5.652;2023-03-05T14:25:30;7.70;99.90
43089;DHT22;28709;52.030;5.652;2023-03-05T14:28:01;7.50;99.90
43089;DHT22;28709;52.030;5.652;2023-03-05T14:30:27;7.40;99.90
43089;DHT22;28709;52.030;5.652;2023-03-05T14:32:55;7.40;99.90
43089;DHT22;28709;52.030;5.652;2023-03-05T14:35:25;7.50;99.90
43089;DHT22;28709;52.030;5.652;2023-03-05T14:37:53;7.50;99.90
43089;DHT22;28709;52.030;5.652;2023-03-05T14:40:31;7.50;99.90
43089;DHT22;28709;52.030;5.652;2023-03-05T14:42:59;7.50;99.90
43089;DHT22;28709;52.030;5.652;2023-03-05T14:45:29;7.60;99.90
43089;DHT22;28709;52.030;5.652;2023-03-05T14:47:57;7.60;99.90
43089;DHT22;28709;52.030;5.652;2023-03-05T14:50:26;7.60;99.90
43089;DHT22;28709;52.030;5.652;2023-03-05T14:52:55;7.60;99.90
43089;DHT22;28709;52.030;5.652;2023-03-05T14:55:23;7.60;99.90
43089;DHT22;28709;52.030;5.652;2023-03-05T14:57:50;7.60;99.90
43089;DHT22;28709;52.030;5.652;2023-03-05T15:00:19;7.60;99.90
43089;DHT22;28709;52.030;5.652;2023-03-05T15:02:45;7.60;99.90
43089;DHT22;28709;52.030;5.652;2023-03-05T15:05:11;7.60;99.90
43089;DHT22;28709;52.030;5.652;2023-03-05T15:07:37;7.50;99.90
43089;DHT22;28709;52.030;5.652;2023-03-05T15:10:03;7.40;99.90
43089;DHT22;28709;52.030;5.652;2023-03-05T15:12:30;7.30;99.90
43089;DHT22;28709;52.030;5.652;2023-03-05T15:14:56;7.30;99.90
43089;DHT22;28709;52.030;5.652;2023-03-05T15:17:28;7.30;99.90
43089;DHT22;28709;52.030;5.652;2023-03-05T15:19:56;7.30;99.90
43089;DHT22;28709;52.030;5.652;2023-03-05T15:22:21;7.30;99.90
43089;DHT22;28709;52.030;5.652;2023-03-05T15:24:47;7.40;99.90
43089;DHT22;28709;52.030;5.652;2023-03-05T15:27:13;7.40;99.90
43089;DHT22;28709;52.030;5.652;2023-03-05T15:29:39;7.40;99.90
43089;DHT22;28709;52.030;5.652;2023-03-05T15:32:05;7.50;99.90
43089;DHT22;28709;52.030;5.652;2023-03-05T15:34:31;7.50;99.90
43089;DHT22;28709;52.030;5.652;2023-03-05T15:36:58;7.50;99.90
43089;DHT22;28709;52.030;5.652;2023-03-05T15:39:24;7.50;99.90
43089;DHT22;28709;52.030;5.652;2023-03-05T15:41:50;7.50;99.90
43089;DHT22;28709;52.030;5.652;2023-03-05T15:44:16;7.50;99.90
43089;DHT22;28709;52.030;5.652;2023-03-05T15:46:42;7.50;99.90
43089;DHT22;28709;52.030;5.652;2023-03-05T15:49:07;7.30;99.90
43089;DHT22;28709;52.030;5.652;2023-03-05T15:51:33;7.20;99.90
43089;DHT22;28709;52.030;5.652;2023-03-05T15:53:59;7.20;99.90
43089;DHT22;28709;52.030;5.652;2023-03-05T15:56:24;7.10;99.90
43089;DHT22;28709;52.030;5.652;2023-03-05T15:58:50;7.00;99.90
43089;DHT22;28709;52.030;5.652;2023-03-05T16:01:16;6.80;99.90
43089;DHT22;28709;52.030;5.652;2023-03-05T16:03:44;6.80;99.90
43089;DHT22;28709;52.030;5.652;2023-03-05T16:06:10;6.70;99.90
43089;DHT22;28709;52.030;5.652;2023-03-05T16:08:38;6.60;99.90
43089;DHT22;28709;52.030;5.652;2023-03-05T16:11:06;6.50;99.90
43089;DHT22;28709;52.030;5.652;2023-03-05T16:13:32;6.50;99.90
43089;DHT22;28709;52.030;5.652;2023-03-05T16:15:59;6.50;99.90
43089;DHT22;28709;52.030;5.652;2023-03-05T16:18:25;6.50;99.90
43089;DHT22;28709;52.030;5.652;2023-03-05T16:20:52;6.50;99.90
43089;DHT22;28709;52.030;5.652;2023-03-05T16:23:19;6.40;99.90
43089;DHT22;28709;52.030;5.652;2023-03-05T16:25:45;6.40;99.90
43089;DHT22;28709;52.030;5.652;2023-03-05T16:28:11;6.40;99.90
43089;DHT22;28709;52.030;5.652;2023-03-05T16:30:37;6.40;99.90
43089;DHT22;28709;52.030;5.652;2023-03-05T16:33:04;6.30;99.90
43089;DHT22;28709;52.030;5.652;2023-03-05T16:35:30;6.30;99.90
43089;DHT22;28709;52.030;5.652;2023-03-05T16:37:56;6.20;99.90
43089;DHT22;28709;52.030;5.652;2023-03-05T16:40:22;6.20;99.90
43089;DHT22;28709;52.030;5.652;2023-03-05T16:42:47;6.20;99.90
43089;DHT22;28709;52.030;5.652;2023-03-05T16:45:13;6.10;99.90
43089;DHT22;28709;52.030;5.652;2023-03-05T16:47:39;6.10;99.90
43089;DHT22;28709;52.030;5.652;2023-03-05T16:50:05;6.10;99.90
43089;DHT22;28709;52.030;5.652;2023-03-05T16:52:31;6.10;99.90
43089;DHT22;28709;52.030;5.652;2023-03-05T16:54:57;6.00;99.90
43089;DHT22;28709;52.030;5.652;2023-03-05T16:57:22;6.00;99.90
43089;DHT22;28709;52.030;5.652;2023-03-05T16:59:51;6.00;99.90
43089;DHT22;28709;52.030;5.652;2023-03-05T17:02:17;6.00;99.90